Time;durP1;ratioP1;P1;durP2;ratioP2;P2;SDS_P1;SDS_P2;PMS_P1;PMS_P2;Temp;Humidity;BMP_temperature;BMP_pressure;BME280_temperature;BME280_humidity;BME280_pressure;Samples;Min_cycle;Max_cycle;Signal;HPM_P1;HPM_P2
2022/04/09 00:01:56;;;;;;;9.50;1.65;;;;;;;;;;5260250;28;20012;-68
2022/04/09 00:04:28;;;;;;;11.24;1.36;;;;;;;;;;5260233;28;20025;-68
2022/04/09 00:06:59;;;;;;;15.77;1.75;;;;;;;;;;5260729;28;20009;-69
2022/04/09 00:09:30;;;;;;;11.60;1.50;;;;;;;;;;5259240;28;20044;-68
2022/04/09 00:12:02;;;;;;;12.50;1.10;;;;;;;;;;5260868;28;20112;-68
2022/04/09 00:14:33;;;;;;;11.80;1.73;;;;;;;;;;5258923;28;20054;-69
2022/04/09 00:17:04;;;;;;;11.77;1.25;;;;;;;;;;5260421;28;20051;-69
2022/04/09 00:19:36;;;;;;;13.75;1.48;;;;;;;;;;5259814;28;20032;-68
2022/04/09 00:22:07;;;;;;;14.57;1.65;;;;;;;;;;5259935;28;20052;-68
2022/04/09 00:24:39;;;;;;;13.80;1.27;;;;;;;;;;5259759;28;20075;-68
2022/04/09 00:27:10;;;;;;;10.98;1.68;;;;;;;;;;5260406;28;20032;-69
2022/04/09 00:29:41;;;;;;;14.06;1.30;;;;;;;;;;5259165;28;20460;-69
2022/04/09 00:32:12;;;;;;;14.52;1.88;;;;;;;;;;5260340;28;20017;-68
2022/04/09 00:34:43;;;;;;;13.12;1.26;;;;;;;;;;5259722;28;20116;-68
2022/04/09 00:37:15;;;;;;;14.88;1.50;;;;;;;;;;5259618;28;20036;-68
2022/04/09 00:39:46;;;;;;;11.93;1.10;;;;;;;;;;5259990;28;20025;-67
2022/04/09 00:42:18;;;;;;;13.04;1.58;;;;;;;;;;5260405;28;20095;-67
2022/04/09 00:44:50;;;;;;;9.20;1.15;;;;;;;;;;5259077;28;20115;-67
2022/04/09 00:47:21;;;;;;;14.48;1.30;;;;;;;;;;5259978;28;20096;-68
2022/04/09 00:49:52;;;;;;;12.88;1.56;;;;;;;;;;5259740;28;20025;-67
2022/04/09 00:52:25;;;;;;;17.88;2.05;;;;;;;;;;5263731;28;20009;-69
2022/04/09 00:54:57;;;;;;;17.27;1.88;;;;;;;;;;5264255;28;20067;-68
2022/04/09 00:57:29;;;;;;;12.60;1.02;;;;;;;;;;5262537;28;20021;-68
2022/04/09 01:00:09;;;;;;;12.25;1.10;;;;;;;;;;5264260;28;20124;-70
2022/04/09 01:02:42;;;;;;;19.05;1.55;;;;;;;;;;5263760;28;20142;-68
2022/04/09 01:05:13;;;;;;;20.80;2.55;;;;;;;;;;5263359;28;20078;-69
2022/04/09 01:07:46;;;;;;;17.30;1.60;;;;;;;;;;5263378;28;20025;-69
2022/04/09 01:10:17;;;;;;;15.80;1.40;;;;;;;;;;5264207;28;20025;-69
2022/04/09 01:12:48;;;;;;;9.98;1.15;;;;;;;;;;5262434;28;20060;-69
2022/04/09 01:15:19;;;;;;;16.05;1.65;;;;;;;;;;5263764;28;20041;-69
2022/04/09 01:17:51;;;;;;;12.10;1.02;;;;;;;;;;5262688;28;20029;-69
2022/04/09 01:20:24;;;;;;;14.30;1.40;;;;;;;;;;5263123;28;20025;-69
2022/04/09 01:22:56;;;;;;;14.23;1.45;;;;;;;;;;5263816;28;20021;-69
2022/04/09 01:25:27;;;;;;;17.63;2.33;;;;;;;;;;5262379;28;20021;-69
2022/04/09 01:27:58;;;;;;;14.50;2.04;;;;;;;;;;5263808;28;20033;-68
2022/04/09 01:30:29;;;;;;;17.05;2.45;;;;;;;;;;5263084;28;20066;-68
2022/04/09 01:33:01;;;;;;;16.08;1.35;;;;;;;;;;5262509;28;20025;-68
2022/04/09 01:35:32;;;;;;;15.22;1.42;;;;;;;;;;5262886;28;20049;-68
2022/04/09 01:38:03;;;;;;;19.06;2.08;;;;;;;;;;5263356;28;20021;-67
2022/04/09 01:40:34;;;;;;;16.78;1.48;;;;;;;;;;5262375;28;20074;-68
2022/04/09 01:43:05;;;;;;;11.48;1.10;;;;;;;;;;5263157;28;20028;-68
2022/04/09 01:45:36;;;;;;;19.60;1.40;;;;;;;;;;5262488;28;20021;-68
2022/04/09 01:48:08;;;;;;;10.55;1.08;;;;;;;;;;5262581;28;20362;-68
2022/04/09 01:50:39;;;;;;;14.57;1.70;;;;;;;;;;5262662;28;20025;-68
2022/04/09 01:53:10;;;;;;;9.80;1.70;;;;;;;;;;5262509;28;20156;-68
2022/04/09 01:55:43;;;;;;;13.68;1.40;;;;;;;;;;5262419;28;20024;-68
2022/04/09 01:58:14;;;;;;;9.98;1.23;;;;;;;;;;5263246;28;20106;-69
2022/04/09 02:00:45;;;;;;;11.96;0.96;;;;;;;;;;5261521;28;20096;-68
2022/04/09 02:03:17;;;;;;;14.75;0.95;;;;;;;;;;5262911;28;20028;-68
2022/04/09 02:05:48;;;;;;;11.27;1.45;;;;;;;;;;5262387;28;20110;-69
2022/04/09 02:08:20;;;;;;;8.60;0.86;;;;;;;;;;5261622;28;20148;-68
2022/04/09 02:10:51;;;;;;;15.00;1.35;;;;;;;;;;5262608;28;20025;-68
2022/04/09 02:13:22;;;;;;;9.70;0.96;;;;;;;;;;5262139;28;20057;-69
2022/04/09 02:15:53;;;;;;;8.86;0.90;;;;;;;;;;5262095;28;20108;-68
2022/04/09 02:18:24;;;;;;;18.80;1.10;;;;;;;;;;5262019;28;20099;-68
2022/04/09 02:20:55;;;;;;;11.92;1.12;;;;;;;;;;5262695;28;20031;-68
2022/04/09 02:23:27;;;;;;;16.85;1.48;;;;;;;;;;5261186;28;20115;-68
2022/04/09 02:25:58;;;;;;;14.18;0.93;;;;;;;;;;5262606;28;20013;-68
2022/04/09 02:28:31;;;;;;;13.88;1.50;;;;;;;;;;5260979;28;20071;-68
2022/04/09 02:31:02;;;;;;;17.70;1.88;;;;;;;;;;5262140;28;20013;-68
2022/04/09 02:33:33;;;;;;;11.78;1.18;;;;;;;;;;5261923;28;20029;-68
2022/04/09 02:36:06;;;;;;;13.84;1.96;;;;;;;;;;5261603;28;20404;-68
2022/04/09 02:38:37;;;;;;;12.15;0.80;;;;;;;;;;5261532;28;20071;-69
2022/04/09 02:41:09;;;;;;;9.63;1.40;;;;;;;;;;5262033;28;20013;-68
2022/04/09 02:43:41;;;;;;;11.40;1.13;;;;;;;;;;5260585;28;20032;-68
2022/04/09 02:46:12;;;;;;;15.90;1.73;;;;;;;;;;5262001;28;20101;-68
2022/04/09 02:48:44;;;;;;;15.95;1.05;;;;;;;;;;5261344;28;20104;-68
2022/04/09 02:51:15;;;;;;;14.55;1.88;;;;;;;;;;5261052;28;20017;-68
2022/04/09 02:53:46;;;;;;;12.86;1.76;;;;;;;;;;5261001;28;20035;-68
2022/04/09 02:56:17;;;;;;;16.30;1.83;;;;;;;;;;5261455;28;20045;-69
2022/04/09 02:58:48;;;;;;;15.90;1.67;;;;;;;;;;5260859;28;20111;-68
2022/04/09 03:01:19;;;;;;;9.90;0.68;;;;;;;;;;5261439;28;20090;-68
2022/04/09 03:03:50;;;;;;;10.92;0.90;;;;;;;;;;5260710;28;20017;-67
2022/04/09 03:06:22;;;;;;;14.00;0.70;;;;;;;;;;5260880;28;20029;-69
2022/04/09 03:08:53;;;;;;;10.42;0.84;;;;;;;;;;5261730;28;20314;-69
2022/04/09 03:11:24;;;;;;;11.57;0.98;;;;;;;;;;5260402;28;20051;-69
2022/04/09 03:13:55;;;;;;;13.20;0.90;;;;;;;;;;5260687;28;20194;-66
2022/04/09 03:16:26;;;;;;;11.15;0.82;;;;;;;;;;5260977;28;20461;-69
2022/04/09 03:18:57;;;;;;;7.98;1.00;;;;;;;;;;5260641;28;20111;-69
2022/04/09 03:21:29;;;;;;;9.25;0.70;;;;;;;;;;5260918;28;20017;-69
2022/04/09 03:24:00;;;;;;;11.07;1.00;;;;;;;;;;5261433;28;20025;-69
2022/04/09 03:26:31;;;;;;;10.30;0.83;;;;;;;;;;5260037;28;20491;-69
2022/04/09 03:29:03;;;;;;;11.13;1.00;;;;;;;;;;5261309;28;20069;-69
2022/04/09 03:31:35;;;;;;;9.17;0.60;;;;;;;;;;5259598;28;20468;-69
2022/04/09 03:34:06;;;;;;;11.43;0.93;;;;;;;;;;5261639;28;20036;-69
2022/04/09 03:36:38;;;;;;;15.93;1.33;;;;;;;;;;5260696;28;20017;-67
2022/04/09 03:39:09;;;;;;;11.00;0.93;;;;;;;;;;5260366;28;20032;-68
2022/04/09 03:41:40;;;;;;;9.33;0.83;;;;;;;;;;5260336;28;20107;-67
2022/04/09 03:44:11;;;;;;;11.80;0.87;;;;;;;;;;5260952;28;20027;-67
2022/04/09 03:46:43;;;;;;;9.60;1.17;;;;;;;;;;5259817;28;20024;-67
2022/04/09 03:49:15;;;;;;;10.57;0.90;;;;;;;;;;5261023;28;20025;-67
2022/04/09 03:51:46;;;;;;;10.27;1.23;;;;;;;;;;5260398;28;20021;-67
2022/04/09 03:54:17;;;;;;;8.45;0.75;;;;;;;;;;5260055;28;20028;-67
2022/04/09 03:56:49;;;;;;;13.30;0.90;;;;;;;;;;5260793;28;20116;-68
2022/04/09 03:59:20;;;;;;;8.68;1.08;;;;;;;;;;5260599;28;20456;-68
2022/04/09 04:01:52;;;;;;;10.30;1.42;;;;;;;;;;5259842;28;20040;-68
2022/04/09 04:04:23;;;;;;;10.38;0.80;;;;;;;;;;5260211;28;20043;-68
2022/04/09 04:06:54;;;;;;;9.07;0.90;;;;;;;;;;5259849;28;20013;-69
2022/04/09 04:09:25;;;;;;;7.28;1.02;;;;;;;;;;5260318;28;20140;-68
2022/04/09 04:11:57;;;;;;;12.20;1.70;;;;;;;;;;5260794;28;20070;-68
2022/04/09 04:14:29;;;;;;;10.93;1.10;;;;;;;;;;5259020;28;20045;-67
2022/04/09 04:17:00;;;;;;;8.80;1.17;;;;;;;;;;5260573;28;20082;-68
2022/04/09 04:19:32;;;;;;;14.00;1.00;;;;;;;;;;5259813;28;20128;-68
2022/04/09 04:22:03;;;;;;;7.23;1.20;;;;;;;;;;5260115;28;20475;-68
2022/04/09 04:24:37;;;;;;;7.88;1.00;;;;;;;;;;5260140;28;20033;-69
2022/04/09 04:27:08;;;;;;;11.83;1.53;;;;;;;;;;5264427;28;20017;-69
2022/04/09 04:29:39;;;;;;;10.00;0.98;;;;;;;;;;5263324;28;20063;-69
2022/04/09 04:32:10;;;;;;;8.02;1.00;;;;;;;;;;5264684;28;20021;-68
2022/04/09 04:34:41;;;;;;;8.98;0.84;;;;;;;;;;5263957;28;20040;-68
2022/04/09 04:37:13;;;;;;;13.26;1.00;;;;;;;;;;5263880;28;20025;-68
2022/04/09 04:39:44;;;;;;;10.32;1.10;;;;;;;;;;5263763;28;20031;-68
2022/04/09 04:42:15;;;;;;;7.95;1.58;;;;;;;;;;5263241;28;20052;-68
2022/04/09 04:44:46;;;;;;;13.12;1.34;;;;;;;;;;5263473;28;20028;-68
2022/04/09 04:47:17;;;;;;;10.38;0.90;;;;;;;;;;5264359;28;20047;-68
2022/04/09 04:49:48;;;;;;;9.44;0.76;;;;;;;;;;5262956;28;20017;-68
2022/04/09 04:52:19;;;;;;;8.25;1.35;;;;;;;;;;5264002;28;20487;-66
2022/04/09 04:54:51;;;;;;;17.23;1.00;;;;;;;;;;5263894;28;20025;-68
2022/04/09 04:57:22;;;;;;;13.23;1.20;;;;;;;;;;5262651;28;20047;-67
2022/04/09 04:59:55;;;;;;;11.95;0.95;;;;;;;;;;5264142;28;20025;-68
2022/04/09 05:02:26;;;;;;;7.77;1.73;;;;;;;;;;5263373;28;20059;-68
2022/04/09 05:04:57;;;;;;;10.65;1.08;;;;;;;;;;5263177;28;20025;-67
2022/04/09 05:07:41;;;;;;;12.48;1.30;;;;;;;;;;5263061;28;20021;-67
2022/04/09 05:10:13;;;;;;;9.20;0.93;;;;;;;;;;5263119;28;20044;-67
2022/04/09 05:12:45;;;;;;;11.80;1.07;;;;;;;;;;5263135;28;20057;-68
2022/04/09 05:15:16;;;;;;;10.93;1.33;;;;;;;;;;5263909;28;20017;-68
2022/04/09 05:17:47;;;;;;;14.07;0.97;;;;;;;;;;5262304;28;20028;-68
2022/04/09 05:20:19;;;;;;;14.76;1.48;;;;;;;;;;5263578;28;20079;-68
2022/04/09 05:22:50;;;;;;;13.33;1.60;;;;;;;;;;5263414;28;20108;-68
2022/04/09 05:25:21;;;;;;;14.10;0.92;;;;;;;;;;5262301;28;20024;-69
2022/04/09 05:27:52;;;;;;;14.37;1.73;;;;;;;;;;5263573;28;20104;-68
2022/04/09 05:30:24;;;;;;;10.37;1.30;;;;;;;;;;5262825;28;20452;-69
2022/04/09 05:32:55;;;;;;;10.00;0.90;;;;;;;;;;5262534;28;20104;-69
2022/04/09 05:35:26;;;;;;;12.18;1.18;;;;;;;;;;5262871;28;20033;-67
2022/04/09 05:37:57;;;;;;;11.60;1.00;;;;;;;;;;5262836;28;20108;-69
2022/04/09 05:40:29;;;;;;;10.00;0.98;;;;;;;;;;5261918;28;20028;-69
2022/04/09 05:43:00;;;;;;;10.70;1.65;;;;;;;;;;5263336;28;20104;-68
2022/04/09 05:45:31;;;;;;;11.98;1.05;;;;;;;;;;5261800;28;20033;-68
2022/04/09 05:48:03;;;;;;;12.40;1.50;;;;;;;;;;5263127;28;20041;-67
2022/04/09 05:50:34;;;;;;;11.82;1.35;;;;;;;;;;5262440;28;20017;-68
2022/04/09 05:53:06;;;;;;;12.12;1.74;;;;;;;;;;5262200;28;20032;-68
2022/04/09 05:55:37;;;;;;;10.18;1.10;;;;;;;;;;5262538;28;20501;-68
2022/04/09 05:58:08;;;;;;;11.38;1.46;;;;;;;;;;5262981;28;20112;-68
2022/04/09 06:00:40;;;;;;;9.12;0.70;;;;;;;;;;5261336;28;20021;-68
2022/04/09 06:03:11;;;;;;;8.35;0.80;;;;;;;;;;5262594;28;20066;-68
2022/04/09 06:05:42;;;;;;;10.27;1.10;;;;;;;;;;5262203;28;20460;-69
2022/04/09 06:08:13;;;;;;;15.98;1.20;;;;;;;;;;5262124;28;20021;-69
2022/04/09 06:10:44;;;;;;;9.86;0.98;;;;;;;;;;5262248;28;20092;-69
2022/04/09 06:13:16;;;;;;;10.08;1.22;;;;;;;;;;5261698;28;20063;-69
2022/04/09 06:15:47;;;;;;;11.85;1.65;;;;;;;;;;5261977;28;20083;-69
2022/04/09 06:18:18;;;;;;;15.76;1.14;;;;;;;;;;5262328;28;20036;-69
2022/04/09 06:20:49;;;;;;;15.25;1.48;;;;;;;;;;5261673;28;20070;-69
2022/04/09 06:23:20;;;;;;;7.88;0.84;;;;;;;;;;5261982;28;20115;-68
2022/04/09 06:25:52;;;;;;;8.38;0.90;;;;;;;;;;5262129;28;20376;-68
2022/04/09 06:28:24;;;;;;;14.85;1.63;;;;;;;;;;5260975;28;20052;-68
2022/04/09 06:30:55;;;;;;;8.85;0.70;;;;;;;;;;5262389;28;20045;-70
2022/04/09 06:33:26;;;;;;;11.60;1.00;;;;;;;;;;5261802;28;20411;-68
2022/04/09 06:35:57;;;;;;;7.60;0.90;;;;;;;;;;5261830;28;20468;-68
2022/04/09 06:38:30;;;;;;;12.85;1.33;;;;;;;;;;5261539;28;20119;-69
2022/04/09 06:41:02;;;;;;;9.75;1.02;;;;;;;;;;5262272;28;20375;-69
2022/04/09 06:43:33;;;;;;;9.57;0.98;;;;;;;;;;5260961;28;20021;-69
2022/04/09 06:46:04;;;;;;;8.60;0.90;;;;;;;;;;5262245;28;20017;-69
2022/04/09 06:48:44;;;;;;;14.15;0.88;;;;;;;;;;5260581;28;20033;-69
2022/04/09 06:51:15;;;;;;;10.95;0.85;;;;;;;;;;5262584;28;20260;-69
2022/04/09 06:53:46;;;;;;;8.84;0.82;;;;;;;;;;5261242;28;20475;-68
2022/04/09 06:56:17;;;;;;;10.40;0.85;;;;;;;;;;5261187;28;20468;-69
2022/04/09 06:58:48;;;;;;;6.30;0.68;;;;;;;;;;5261673;28;20387;-69
2022/04/09 07:01:19;;;;;;;11.23;1.30;;;;;;;;;;5261576;28;20024;-69
2022/04/09 07:03:50;;;;;;;8.68;0.85;;;;;;;;;;5260797;28;20267;-69
2022/04/09 07:06:22;;;;;;;9.82;1.00;;;;;;;;;;5261076;28;20263;-69
2022/04/09 07:08:53;;;;;;;9.18;1.10;;;;;;;;;;5261918;28;20020;-69
2022/04/09 07:11:24;;;;;;;8.65;0.80;;;;;;;;;;5260359;28;20432;-69
2022/04/09 07:13:55;;;;;;;8.20;0.82;;;;;;;;;;5261422;28;20298;-69
2022/04/09 07:16:27;;;;;;;14.20;1.17;;;;;;;;;;5260925;28;20029;-69
2022/04/09 07:18:58;;;;;;;9.00;0.90;;;;;;;;;;5260860;28;20334;-69
2022/04/09 07:21:29;;;;;;;10.82;0.85;;;;;;;;;;5261034;28;20276;-68
2022/04/09 07:24:00;;;;;;;10.45;1.10;;;;;;;;;;5260785;28;20338;-69
2022/04/09 07:26:31;;;;;;;11.52;1.00;;;;;;;;;;5260901;28;20447;-68
2022/04/09 07:29:02;;;;;;;8.40;0.90;;;;;;;;;;5261248;28;20024;-69
2022/04/09 07:31:34;;;;;;;8.32;0.80;;;;;;;;;;5259990;28;20017;-68
2022/04/09 07:34:05;;;;;;;5.38;0.80;;;;;;;;;;5261478;28;20286;-68
2022/04/09 07:36:38;;;;;;;10.18;1.05;;;;;;;;;;5260708;28;20095;-68
2022/04/09 07:39:09;;;;;;;9.88;0.93;;;;;;;;;;5260209;28;20027;-68
2022/04/09 07:41:40;;;;;;;8.25;1.80;;;;;;;;;;5260557;28;20535;-68
2022/04/09 07:44:11;;;;;;;12.48;0.95;;;;;;;;;;5261522;28;20746;-68
2022/04/09 07:46:43;;;;;;;12.07;0.80;;;;;;;;;;5259853;28;20032;-68
2022/04/09 07:49:14;;;;;;;10.00;0.90;;;;;;;;;;5260991;28;20267;-68
2022/04/09 07:51:45;;;;;;;8.90;1.27;;;;;;;;;;5259580;28;20025;-69
2022/04/09 07:54:16;;;;;;;7.65;1.13;;;;;;;;;;5261287;28;20428;-68
2022/04/09 07:56:47;;;;;;;6.75;0.82;;;;;;;;;;5260376;28;20267;-68
2022/04/09 07:59:18;;;;;;;9.65;1.15;;;;;;;;;;5259692;28;20307;-68
2022/04/09 08:01:50;;;;;;;7.18;0.85;;;;;;;;;;5260644;28;20770;-67
2022/04/09 08:04:21;;;;;;;9.10;0.97;;;;;;;;;;5260369;28;20113;-67
2022/04/09 08:06:52;;;;;;;5.55;0.82;;;;;;;;;;5260263;28;20259;-67
2022/04/09 08:09:23;;;;;;;4.72;0.68;;;;;;;;;;5257470;28;20029;-67
2022/04/09 08:11:55;;;;;;;6.67;0.70;;;;;;;;;;5279571;28;20266;-68
2022/04/09 08:14:26;;;;;;;7.22;1.13;;;;;;;;;;5279490;28;20688;-68
2022/04/09 08:16:58;;;;;;;8.25;0.90;;;;;;;;;;5281524;28;20103;-68
2022/04/09 08:19:29;;;;;;;6.93;0.90;;;;;;;;;;5280607;28;20070;-68
2022/04/09 08:22:04;;;;;;;6.28;1.00;;;;;;;;;;5280851;28;20058;-68
2022/04/09 08:24:35;;;;;;;7.88;1.08;;;;;;;;;;5281032;28;20491;-68
2022/04/09 08:27:08;;;;;;;8.95;1.10;;;;;;;;;;5280772;28;20021;-69
2022/04/09 08:29:40;;;;;;;7.32;0.90;;;;;;;;;;5280905;28;20020;-69
2022/04/09 08:32:12;;;;;;;10.50;1.48;;;;;;;;;;5281382;28;20486;-69
2022/04/09 08:34:43;;;;;;;6.13;1.00;;;;;;;;;;5280081;28;20028;-69
2022/04/09 08:37:14;;;;;;;5.57;0.82;;;;;;;;;;5281591;28;20409;-69
2022/04/09 08:39:46;;;;;;;3.90;0.50;;;;;;;;;;5280569;28;20035;-69
2022/04/09 08:42:17;;;;;;;4.55;0.63;;;;;;;;;;5280320;28;20278;-69
2022/04/09 08:44:48;;;;;;;8.93;0.70;;;;;;;;;;5280566;28;20271;-68
2022/04/09 08:47:20;;;;;;;4.43;0.98;;;;;;;;;;5280930;28;20016;-69
2022/04/09 08:49:52;;;;;;;6.60;0.65;;;;;;;;;;5280252;28;20383;-69
2022/04/09 08:52:23;;;;;;;5.00;0.77;;;;;;;;;;5280440;28;20020;-69
2022/04/09 08:54:54;;;;;;;7.32;1.08;;;;;;;;;;5281295;28;20025;-69
2022/04/09 08:57:25;;;;;;;5.85;0.85;;;;;;;;;;5279649;28;20047;-68
2022/04/09 08:59:57;;;;;;;5.80;0.50;;;;;;;;;;5281047;28;20495;-69
2022/04/09 09:02:28;;;;;;;5.83;0.87;;;;;;;;;;5279758;28;20021;-68
2022/04/09 09:05:00;;;;;;;4.93;1.08;;;;;;;;;;5281033;28;20338;-68
2022/04/09 09:07:31;;;;;;;4.63;0.60;;;;;;;;;;5280616;28;20016;-68
2022/04/09 09:10:16;;;;;;;4.43;0.57;;;;;;;;;;5280327;28;20028;-70
2022/04/09 09:13:06;;;;;;;5.07;0.40;;;;;;;;;;5283290;28;20042;-68
2022/04/09 09:15:52;;;;;;;2.08;0.35;;;;;;;;;;5284335;28;20040;-68
2022/04/09 09:18:24;;;;;;;4.38;0.45;;;;;;;;;;5283312;28;20029;-69
2022/04/09 09:20:55;;;;;;;5.22;0.63;;;;;;;;;;5284537;28;20009;-68
2022/04/09 09:23:30;;;;;;;4.40;0.40;;;;;;;;;;5283082;28;20366;-68
2022/04/09 09:26:03;;;;;;;3.33;0.38;;;;;;;;;;5284668;28;20595;-68
2022/04/09 09:28:35;;;;;;;6.30;0.80;;;;;;;;;;5283931;28;20387;-69
2022/04/09 09:31:06;;;;;;;4.40;0.63;;;;;;;;;;5283762;28;20012;-68
2022/04/09 09:33:37;;;;;;;1.40;0.30;;;;;;;;;;5284019;28;20047;-69
2022/04/09 09:36:08;;;;;;;2.05;0.20;;;;;;;;;;5284379;28;20263;-68
2022/04/09 09:38:40;;;;;;;5.43;0.30;;;;;;;;;;5282992;28;20136;-68
2022/04/09 09:41:22;;;;;;;1.92;0.30;;;;;;;;;;5284105;28;20016;-68
2022/04/09 09:44:00;;;;;;;3.50;0.38;;;;;;;;;;5284253;28;20471;-69
2022/04/09 09:46:32;;;;;;;1.80;0.28;;;;;;;;;;5282709;28;20122;-69
2022/04/09 09:49:03;;;;;;;3.85;0.43;;;;;;;;;;5284136;28;20036;-69
2022/04/09 09:51:34;;;;;;;4.70;0.30;;;;;;;;;;5282856;28;20059;-69
2022/04/09 09:54:11;;;;;;;3.00;0.60;;;;;;;;;;5284180;28;20273;-69
2022/04/09 09:56:43;;;;;;;3.17;0.50;;;;;;;;;;5283529;28;20008;-68
2022/04/09 09:59:14;;;;;;;2.47;0.50;;;;;;;;;;5283178;28;20083;-68
2022/04/09 10:01:48;;;;;;;3.80;0.50;;;;;;;;;;5283476;28;20012;-68
2022/04/09 10:04:20;;;;;;;2.42;0.30;;;;;;;;;;5283662;28;20016;-71
2022/04/09 10:06:51;;;;;;;2.30;0.20;;;;;;;;;;5282867;28;20534;-71
2022/04/09 10:09:23;;;;;;;3.08;0.38;;;;;;;;;;5283157;28;20031;-71
2022/04/09 10:11:54;;;;;;;2.95;0.32;;;;;;;;;;5283437;28;20030;-69
2022/04/09 10:14:28;;;;;;;2.72;0.20;;;;;;;;;;5282222;28;20495;-70
2022/04/09 10:17:00;;;;;;;3.03;0.40;;;;;;;;;;5283693;28;20040;-70
2022/04/09 10:19:32;;;;;;;2.85;0.30;;;;;;;;;;5282120;28;20458;-70
2022/04/09 10:22:03;;;;;;;2.80;0.30;;;;;;;;;;5283557;28;20360;-69
2022/04/09 10:24:35;;;;;;;4.10;0.40;;;;;;;;;;5283267;28;20028;-70
2022/04/09 10:27:08;;;;;;;1.85;0.22;;;;;;;;;;5282598;28;20048;-70
2022/04/09 10:29:46;;;;;;;4.78;0.45;;;;;;;;;;5277810;28;20134;-70
2022/04/09 10:32:36;;;;;;;3.35;0.30;;;;;;;;;;5282974;28;20055;-70
2022/04/09 10:35:26;;;;;;;3.35;0.57;;;;;;;;;;5282049;28;20024;-70
2022/04/09 10:38:06;;;;;;;2.20;0.20;;;;;;;;;;5279040;28;20028;-70
2022/04/09 10:40:43;;;;;;;2.53;0.20;;;;;;;;;;5281388;28;20032;-71
2022/04/09 10:43:23;;;;;;;2.20;0.30;;;;;;;;;;5282808;28;20058;-70
2022/04/09 10:46:00;;;;;;;2.85;0.30;;;;;;;;;;5282827;28;20024;-69
2022/04/09 10:48:31;;;;;;;2.90;0.60;;;;;;;;;;5281010;28;20085;-70
2022/04/09 10:51:07;;;;;;;2.53;0.30;;;;;;;;;;5282756;28;20467;-69
2022/04/09 10:53:39;;;;;;;3.33;0.35;;;;;;;;;;5282346;28;20099;-69
2022/04/09 10:56:20;;;;;;;4.53;0.60;;;;;;;;;;5281460;28;20020;-70
2022/04/09 10:59:10;;;;;;;2.17;0.30;;;;;;;;;;5282267;28;20479;-69
2022/04/09 11:01:48;;;;;;;4.05;0.30;;;;;;;;;;5281028;28;20028;-67
2022/04/09 11:04:25;;;;;;;1.95;0.28;;;;;;;;;;5282131;28;20090;-69
2022/04/09 11:07:15;;;;;;;1.73;0.20;;;;;;;;;;5282343;28;20074;-69
2022/04/09 11:09:48;;;;;;;3.50;0.20;;;;;;;;;;5280717;28;20012;-68
2022/04/09 11:12:24;;;;;;;2.40;0.30;;;;;;;;;;5282130;28;20115;-69
2022/04/09 11:14:56;;;;;;;2.67;0.20;;;;;;;;;;5281732;28;20448;-69
2022/04/09 11:17:32;;;;;;;1.65;0.10;;;;;;;;;;5280941;28;20051;-70
2022/04/09 11:20:05;;;;;;;2.10;0.20;;;;;;;;;;5282066;28;20484;-69
2022/04/09 11:22:41;;;;;;;0.98;0.10;;;;;;;;;;5281831;28;20108;-69
2022/04/09 11:25:18;;;;;;;2.35;0.20;;;;;;;;;;5281920;28;20027;-69
2022/04/09 11:27:53;;;;;;;2.17;0.20;;;;;;;;;;5282092;28;20024;-69
2022/04/09 11:30:24;;;;;;;1.42;0.20;;;;;;;;;;5280508;28;20020;-69
2022/04/09 11:32:55;;;;;;;2.40;0.28;;;;;;;;;;5281439;28;20024;-69
2022/04/09 11:35:32;;;;;;;2.08;0.25;;;;;;;;;;5281017;28;20028;-71
2022/04/09 11:38:09;;;;;;;3.55;0.35;;;;;;;;;;5281276;28;20290;-69
2022/04/09 11:40:46;;;;;;;2.17;0.40;;;;;;;;;;5281609;28;20439;-70
2022/04/09 11:43:18;;;;;;;1.95;0.10;;;;;;;;;;5282006;28;20025;-69
2022/04/09 11:45:49;;;;;;;2.55;0.20;;;;;;;;;;5281091;28;20037;-69
2022/04/09 11:48:21;;;;;;;1.65;0.20;;;;;;;;;;5281559;28;20024;-69
2022/04/09 11:50:53;;;;;;;1.60;0.20;;;;;;;;;;5281033;28;20332;-70
2022/04/09 11:53:24;;;;;;;2.72;0.10;;;;;;;;;;5281075;28;20017;-69
2022/04/09 11:55:59;;;;;;;2.90;0.22;;;;;;;;;;5281992;28;20495;-69
2022/04/09 11:58:31;;;;;;;4.57;0.20;;;;;;;;;;5268723;28;20032;-69
2022/04/09 12:01:06;;;;;;;3.38;0.20;;;;;;;;;;5280168;28;20046;-69
2022/04/09 12:03:37;;;;;;;2.10;0.40;;;;;;;;;;5280041;28;20115;-69
2022/04/09 12:06:08;;;;;;;2.28;0.20;;;;;;;;;;5279924;28;20853;-68
2022/04/09 12:08:40;;;;;;;4.00;0.20;;;;;;;;;;5280117;28;20414;-68
2022/04/09 12:11:11;;;;;;;2.63;0.20;;;;;;;;;;5281366;28;20654;-68
2022/04/09 12:13:45;;;;;;;1.42;0.20;;;;;;;;;;5275919;28;20056;-68
2022/04/09 12:16:17;;;;;;;3.10;0.20;;;;;;;;;;5280524;28;20434;-68
2022/04/09 12:18:48;;;;;;;1.95;0.47;;;;;;;;;;5279814;28;20025;-70
2022/04/09 12:21:20;;;;;;;5.88;0.30;;;;;;;;;;5277119;28;20017;-70
2022/04/09 12:24:10;;;;;;;1.15;0.28;;;;;;;;;;5270495;28;20679;-70
2022/04/09 12:26:43;;;;;;;5.30;0.88;;;;;;;;;;5256440;28;20033;-70
2022/04/09 12:29:19;;;;;;;2.30;0.28;;;;;;;;;;5268867;28;20029;-70
2022/04/09 12:31:51;;;;;;;1.48;0.20;;;;;;;;;;5259223;28;20045;-70
2022/04/09 12:34:23;;;;;;;2.20;0.30;;;;;;;;;;5258135;28;20013;-70
2022/04/09 12:37:00;;;;;;;3.25;0.20;;;;;;;;;;5259415;28;20037;-70
2022/04/09 12:39:37;;;;;;;2.90;0.20;;;;;;;;;;5258370;28;20073;-67
2022/04/09 12:42:08;;;;;;;1.95;0.20;;;;;;;;;;5258878;28;20464;-70
2022/04/09 12:44:39;;;;;;;2.53;0.30;;;;;;;;;;5259047;28;20021;-67
2022/04/09 12:47:10;;;;;;;1.60;0.20;;;;;;;;;;5260719;28;20025;-67
2022/04/09 12:49:41;;;;;;;3.13;0.20;;;;;;;;;;5262683;28;20025;-68
2022/04/09 12:52:12;;;;;;;2.20;0.20;;;;;;;;;;5263722;28;20317;-68
2022/04/09 12:54:44;;;;;;;2.92;0.20;;;;;;;;;;5262194;28;20025;-68
2022/04/09 12:57:15;;;;;;;2.03;0.47;;;;;;;;;;5262944;28;20017;-68
2022/04/09 12:59:46;;;;;;;1.08;0.30;;;;;;;;;;5262707;28;20309;-68
2022/04/09 13:02:17;;;;;;;1.88;0.30;;;;;;;;;;5262611;28;20268;-68
2022/04/09 13:04:48;;;;;;;2.88;0.20;;;;;;;;;;5262930;28;20016;-69
2022/04/09 13:07:19;;;;;;;2.47;0.20;;;;;;;;;;5262650;28;20016;-69
2022/04/09 13:09:51;;;;;;;2.78;0.35;;;;;;;;;;5261632;28;20267;-69
2022/04/09 13:12:22;;;;;;;2.30;0.20;;;;;;;;;;5261859;28;20284;-69
2022/04/09 13:14:53;;;;;;;2.22;0.20;;;;;;;;;;5263229;28;20361;-69
2022/04/09 13:17:24;;;;;;;3.40;0.20;;;;;;;;;;5261717;28;20025;-70
2022/04/09 13:19:55;;;;;;;1.77;0.20;;;;;;;;;;5262277;28;20040;-69
2022/04/09 13:22:26;;;;;;;1.35;0.20;;;;;;;;;;5261732;28;20278;-70
2022/04/09 13:24:58;;;;;;;2.15;0.20;;;;;;;;;;5275396;28;20028;-69
2022/04/09 13:27:29;;;;;;;1.17;0.20;;;;;;;;;;5283002;28;20294;-69
2022/04/09 13:30:01;;;;;;;2.97;0.30;;;;;;;;;;5283027;28;20029;-69
2022/04/09 13:32:32;;;;;;;2.55;0.22;;;;;;;;;;5283175;28;20637;-69
2022/04/09 13:35:03;;;;;;;2.15;0.20;;;;;;;;;;5283751;28;20023;-68
2022/04/09 13:37:35;;;;;;;3.15;0.57;;;;;;;;;;5282187;28;20024;-69
2022/04/09 13:40:06;;;;;;;1.60;0.17;;;;;;;;;;5283921;28;20067;-69
2022/04/09 13:42:37;;;;;;;1.67;0.30;;;;;;;;;;5283384;28;20481;-70
2022/04/09 13:45:10;;;;;;;2.90;0.40;;;;;;;;;;5283680;28;20017;-69
2022/04/09 13:47:41;;;;;;;1.83;0.20;;;;;;;;;;5283592;28;20524;-70
2022/04/09 13:50:13;;;;;;;1.98;0.25;;;;;;;;;;5284100;28;20103;-70
2022/04/09 13:52:45;;;;;;;1.77;0.22;;;;;;;;;;5283136;28;20020;-71
2022/04/09 13:55:16;;;;;;;3.42;0.50;;;;;;;;;;5283936;28;20027;-71
2022/04/09 13:57:47;;;;;;;2.95;0.50;;;;;;;;;;5282262;28;20447;-71
2022/04/09 14:00:19;;;;;;;2.03;0.20;;;;;;;;;;5283596;28;20777;-71
2022/04/09 14:02:50;;;;;;;3.03;0.17;;;;;;;;;;5283661;28;20399;-70
2022/04/09 14:05:21;;;;;;;3.55;0.22;;;;;;;;;;5282622;28;20032;-71
2022/04/09 14:07:52;;;;;;;1.75;0.15;;;;;;;;;;5284149;28;20256;-71
2022/04/09 14:10:24;;;;;;;4.40;0.35;;;;;;;;;;5283230;28;20027;-72
2022/04/09 14:12:57;;;;;;;2.35;0.30;;;;;;;;;;5282753;28;20048;-69
2022/04/09 14:15:28;;;;;;;3.65;0.20;;;;;;;;;;5283312;28;20034;-69
2022/04/09 14:17:59;;;;;;;1.83;0.30;;;;;;;;;;5283491;28;20033;-70
2022/04/09 14:20:30;;;;;;;1.13;0.20;;;;;;;;;;5282277;28;20386;-69
2022/04/09 14:23:02;;;;;;;3.13;0.63;;;;;;;;;;5283156;28;20259;-70
2022/04/09 14:25:34;;;;;;;4.00;0.28;;;;;;;;;;5282391;28;20290;-69
2022/04/09 14:28:08;;;;;;;1.67;0.20;;;;;;;;;;5283546;28;20451;-69
2022/04/09 14:30:41;;;;;;;3.67;0.45;;;;;;;;;;5282827;28;20042;-69
2022/04/09 14:33:12;;;;;;;0.70;0.10;;;;;;;;;;5282432;28;20016;-69
2022/04/09 14:35:43;;;;;;;2.17;0.30;;;;;;;;;;5282429;28;20029;-70
2022/04/09 14:38:15;;;;;;;1.83;0.20;;;;;;;;;;5282749;28;20302;-71
2022/04/09 14:40:46;;;;;;;1.45;0.30;;;;;;;;;;5281775;28;20342;-70
2022/04/09 14:43:17;;;;;;;2.25;0.20;;;;;;;;;;5282928;28;20424;-71
2022/04/09 14:45:48;;;;;;;2.05;0.20;;;;;;;;;;5282220;28;20016;-70
2022/04/09 14:48:21;;;;;;;1.52;0.20;;;;;;;;;;5281827;28;20486;-71
2022/04/09 14:50:53;;;;;;;1.55;0.28;;;;;;;;;;5282914;28;20376;-71
2022/04/09 14:53:24;;;;;;;2.70;0.28;;;;;;;;;;5282261;28;20016;-71
2022/04/09 14:55:56;;;;;;;1.60;0.20;;;;;;;;;;5281935;28;20027;-71
2022/04/09 14:58:27;;;;;;;1.52;0.25;;;;;;;;;;5282082;28;20029;-70
2022/04/09 15:00:58;;;;;;;4.97;0.45;;;;;;;;;;5281990;28;20672;-69
2022/04/09 15:03:30;;;;;;;2.53;0.40;;;;;;;;;;5282311;28;20032;-70
2022/04/09 15:06:04;;;;;;;2.70;0.20;;;;;;;;;;5282900;28;20350;-68
2022/04/09 15:08:39;;;;;;;4.28;0.30;;;;;;;;;;5280880;28;20107;-69